sensor_id;sensor_type;location;lat;lon;timestamp;temperature;humidity
76040;SHT30;64736;50.462;4.850;2023-07-08T00:01:14;20.95;66.75
76040;SHT30;64736;50.462;4.850;2023-07-08T00:03:41;20.81;67.00
76040;SHT30;64736;50.462;4.850;2023-07-08T00:06:12;20.90;67.39
76040;SHT30;64736;50.462;4.850;2023-07-08T00:08:39;20.77;68.37
76040;SHT30;64736;50.462;4.850;2023-07-08T00:11:10;20.61;69.20
76040;SHT30;64736;50.462;4.850;2023-07-08T00:13:36;20.68;69.36
76040;SHT30;64736;50.462;4.850;2023-07-08T00:16:02;20.61;69.42
76040;SHT30;64736;50.462;4.850;2023-07-08T00:18:28;20.58;70.03
76040;SHT30;64736;50.462;4.850;2023-07-08T00:20:53;20.60;70.24
76040;SHT30;64736;50.462;4.850;2023-07-08T00:23:19;20.51;70.77
76040;SHT30;64736;50.462;4.850;2023-07-08T00:25:48;20.47;70.55
76040;SHT30;64736;50.462;4.850;2023-07-08T00:28:16;20.40;70.88
76040;SHT30;64736;50.462;4.850;2023-07-08T00:30:43;20.32;70.86
76040;SHT30;64736;50.462;4.850;2023-07-08T00:33:09;20.39;70.59
76040;SHT30;64736;50.462;4.850;2023-07-08T00:35:37;20.36;70.42
76040;SHT30;64736;50.462;4.850;2023-07-08T00:38:29;20.18;70.70
76040;SHT30;64736;50.462;4.850;2023-07-08T00:40:59;20.26;69.89
76040;SHT30;64736;50.462;4.850;2023-07-08T00:43:40;20.26;69.16
76040;SHT30;64736;50.462;4.850;2023-07-08T00:49:23;19.91;69.65
76040;SHT30;64736;50.462;4.850;2023-07-08T00:51:50;19.81;69.86
76040;SHT30;64736;50.462;4.850;2023-07-08T00:54:18;19.89;69.64
76040;SHT30;64736;50.462;4.850;2023-07-08T00:57:01;19.72;70.39
76040;SHT30;64736;50.462;4.850;2023-07-08T00:59:38;19.70;70.90
76040;SHT30;64736;50.462;4.850;2023-07-08T01:02:09;19.65;70.91
76040;SHT30;64736;50.462;4.850;2023-07-08T01:04:56;19.65;69.73
76040;SHT30;64736;50.462;4.850;2023-07-08T01:07:25;19.54;69.72
76040;SHT30;64736;50.462;4.850;2023-07-08T01:10:03;19.61;69.64
76040;SHT30;64736;50.462;4.850;2023-07-08T01:12:34;19.64;69.77
76040;SHT30;64736;50.462;4.850;2023-07-08T01:15:08;19.58;70.25
76040;SHT30;64736;50.462;4.850;2023-07-08T01:17:36;19.46;70.58
76040;SHT30;64736;50.462;4.850;2023-07-08T01:20:03;19.35;70.25
76040;SHT30;64736;50.462;4.850;2023-07-08T01:22:41;19.30;69.73
76040;SHT30;64736;50.462;4.850;2023-07-08T01:25:09;19.28;70.05
76040;SHT30;64736;50.462;4.850;2023-07-08T01:27:38;19.31;70.34
76040;SHT30;64736;50.462;4.850;2023-07-08T01:30:06;19.12;71.27
76040;SHT30;64736;50.462;4.850;2023-07-08T01:32:39;19.17;71.56
76040;SHT30;64736;50.462;4.850;2023-07-08T01:35:05;19.10;72.40
76040;SHT30;64736;50.462;4.850;2023-07-08T01:37:38;19.26;72.54
76040;SHT30;64736;50.462;4.850;2023-07-08T01:40:35;19.26;72.83
76040;SHT30;64736;50.462;4.850;2023-07-08T01:43:02;19.19;72.74
76040;SHT30;64736;50.462;4.850;2023-07-08T01:45:34;19.09;72.59
76040;SHT30;64736;50.462;4.850;2023-07-08T01:48:05;19.07;72.25
76040;SHT30;64736;50.462;4.850;2023-07-08T01:50:32;18.93;72.82
76040;SHT30;64736;50.462;4.850;2023-07-08T01:53:02;18.93;73.88
76040;SHT30;64736;50.462;4.850;2023-07-08T01:55:31;18.99;73.22
76040;SHT30;64736;50.462;4.850;2023-07-08T01:57:58;18.76;73.63
76040;SHT30;64736;50.462;4.850;2023-07-08T02:00:23;18.64;73.62
76040;SHT30;64736;50.462;4.850;2023-07-08T02:02:50;18.75;74.33
76040;SHT30;64736;50.462;4.850;2023-07-08T02:05:16;18.86;74.29
76040;SHT30;64736;50.462;4.850;2023-07-08T02:07:42;18.84;74.19
76040;SHT30;64736;50.462;4.850;2023-07-08T02:10:08;18.75;74.58
76040;SHT30;64736;50.462;4.850;2023-07-08T02:12:34;18.71;74.65
76040;SHT30;64736;50.462;4.850;2023-07-08T02:15:00;18.49;75.32
76040;SHT30;64736;50.462;4.850;2023-07-08T02:17:27;18.45;75.75
76040;SHT30;64736;50.462;4.850;2023-07-08T02:19:56;18.62;75.64
76040;SHT30;64736;50.462;4.850;2023-07-08T02:22:22;18.71;75.08
76040;SHT30;64736;50.462;4.850;2023-07-08T02:24:48;18.65;75.43
76040;SHT30;64736;50.462;4.850;2023-07-08T02:27:14;18.62;75.69
76040;SHT30;64736;50.462;4.850;2023-07-08T02:29:40;18.81;75.25
76040;SHT30;64736;50.462;4.850;2023-07-08T02:32:07;18.65;75.83
76040;SHT30;64736;50.462;4.850;2023-07-08T02:34:36;18.84;74.82
76040;SHT30;64736;50.462;4.850;2023-07-08T02:37:01;18.52;75.97
76040;SHT30;64736;50.462;4.850;2023-07-08T02:39:27;18.66;76.02
76040;SHT30;64736;50.462;4.850;2023-07-08T02:41:53;19.00;75.34
76040;SHT30;64736;50.462;4.850;2023-07-08T02:44:19;18.91;75.57
76040;SHT30;64736;50.462;4.850;2023-07-08T02:46:45;18.81;76.20
76040;SHT30;64736;50.462;4.850;2023-07-08T02:49:10;18.84;76.15
76040;SHT30;64736;50.462;4.850;2023-07-08T02:51:36;18.55;76.96
76040;SHT30;64736;50.462;4.850;2023-07-08T02:54:02;18.18;78.58
76040;SHT30;64736;50.462;4.850;2023-07-08T02:56:28;18.41;78.15
76040;SHT30;64736;50.462;4.850;2023-07-08T02:58:53;18.61;77.38
76040;SHT30;64736;50.462;4.850;2023-07-08T03:01:19;18.71;77.03
76040;SHT30;64736;50.462;4.850;2023-07-08T03:03:45;18.71;76.98
76040;SHT30;64736;50.462;4.850;2023-07-08T03:06:11;18.61;77.25
76040;SHT30;64736;50.462;4.850;2023-07-08T03:08:37;18.61;77.37
76040;SHT30;64736;50.462;4.850;2023-07-08T03:11:05;18.62;77.47
76040;SHT30;64736;50.462;4.850;2023-07-08T03:13:32;18.62;77.39
76040;SHT30;64736;50.462;4.850;2023-07-08T03:16:00;18.41;78.24
76040;SHT30;64736;50.462;4.850;2023-07-08T03:18:26;18.44;78.33
76040;SHT30;64736;50.462;4.850;2023-07-08T03:20:53;17.94;79.97
76040;SHT30;64736;50.462;4.850;2023-07-08T03:23:24;17.69;80.94
76040;SHT30;64736;50.462;4.850;2023-07-08T03:25:51;18.06;80.27
76040;SHT30;64736;50.462;4.850;2023-07-08T03:28:16;18.11;79.74
76040;SHT30;64736;50.462;4.850;2023-07-08T03:30:43;18.06;79.55
76040;SHT30;64736;50.462;4.850;2023-07-08T03:33:10;18.11;79.44
76040;SHT30;64736;50.462;4.850;2023-07-08T03:35:37;18.06;79.17
76040;SHT30;64736;50.462;4.850;2023-07-08T03:38:04;18.09;79.10
76040;SHT30;64736;50.462;4.850;2023-07-08T03:40:30;18.13;78.44
76040;SHT30;64736;50.462;4.850;2023-07-08T03:42:56;18.01;78.90
76040;SHT30;64736;50.462;4.850;2023-07-08T03:45:22;17.94;78.95
76040;SHT30;64736;50.462;4.850;2023-07-08T03:47:48;17.36;81.73
76040;SHT30;64736;50.462;4.850;2023-07-08T03:50:22;17.25;82.23
76040;SHT30;64736;50.462;4.850;2023-07-08T03:52:50;17.24;82.50
76040;SHT30;64736;50.462;4.850;2023-07-08T03:55:16;17.46;81.93
76040;SHT30;64736;50.462;4.850;2023-07-08T03:57:42;17.55;81.52
76040;SHT30;64736;50.462;4.850;2023-07-08T04:00:09;17.75;80.10
76040;SHT30;64736;50.462;4.850;2023-07-08T04:02:36;17.58;80.44
76040;SHT30;64736;50.462;4.850;2023-07-08T04:05:02;17.68;79.84
76040;SHT30;64736;50.462;4.850;2023-07-08T04:07:29;17.73;78.97
76040;SHT30;64736;50.462;4.850;2023-07-08T04:09:55;17.70;78.95
76040;SHT30;64736;50.462;4.850;2023-07-08T04:12:21;17.63;78.88
76040;SHT30;64736;50.462;4.850;2023-07-08T04:14:46;17.65;78.74
76040;SHT30;64736;50.462;4.850;2023-07-08T04:17:12;17.56;78.36
76040;SHT30;64736;50.462;4.850;2023-07-08T04:19:39;17.68;77.85
76040;SHT30;64736;50.462;4.850;2023-07-08T04:22:05;17.79;77.49
76040;SHT30;64736;50.462;4.850;2023-07-08T04:24:34;17.70;77.82
76040;SHT30;64736;50.462;4.850;2023-07-08T04:27:00;17.82;77.18
76040;SHT30;64736;50.462;4.850;2023-07-08T04:29:25;17.80;76.86
76040;SHT30;64736;50.462;4.850;2023-07-08T04:31:51;17.72;77.35
76040;SHT30;64736;50.462;4.850;2023-07-08T04:34:17;17.87;77.22
76040;SHT30;64736;50.462;4.850;2023-07-08T04:36:43;17.80;77.55
76040;SHT30;64736;50.462;4.850;2023-07-08T04:39:10;17.90;77.48
76040;SHT30;64736;50.462;4.850;2023-07-08T04:41:37;17.80;78.25
76040;SHT30;64736;50.462;4.850;2023-07-08T04:44:07;17.86;78.83
76040;SHT30;64736;50.462;4.850;2023-07-08T04:46:43;17.73;79.35
76040;SHT30;64736;50.462;4.850;2023-07-08T04:49:10;17.73;79.76
76040;SHT30;64736;50.462;4.850;2023-07-08T04:51:38;17.73;80.13
76040;SHT30;64736;50.462;4.850;2023-07-08T04:54:04;17.68;80.45
76040;SHT30;64736;50.462;4.850;2023-07-08T04:56:37;17.91;79.80
76040;SHT30;64736;50.462;4.850;2023-07-08T04:59:03;17.83;80.29
76040;SHT30;64736;50.462;4.850;2023-07-08T05:01:29;17.80;80.50
76040;SHT30;64736;50.462;4.850;2023-07-08T05:03:55;17.80;80.43
76040;SHT30;64736;50.462;4.850;2023-07-08T05:06:20;17.96;80.00
76040;SHT30;64736;50.462;4.850;2023-07-08T05:08:46;17.97;79.95
76040;SHT30;64736;50.462;4.850;2023-07-08T05:11:12;18.20;79.21
76040;SHT30;64736;50.462;4.850;2023-07-08T05:13:37;18.09;79.55
76040;SHT30;64736;50.462;4.850;2023-07-08T05:16:04;17.93;80.22
76040;SHT30;64736;50.462;4.850;2023-07-08T05:18:30;17.96;80.35
76040;SHT30;64736;50.462;4.850;2023-07-08T05:20:56;18.17;79.93
76040;SHT30;64736;50.462;4.850;2023-07-08T05:23:22;18.27;79.74
76040;SHT30;64736;50.462;4.850;2023-07-08T05:25:48;18.18;80.17
76040;SHT30;64736;50.462;4.850;2023-07-08T05:28:13;18.31;79.95
76040;SHT30;64736;50.462;4.850;2023-07-08T05:30:42;18.27;80.01
76040;SHT30;64736;50.462;4.850;2023-07-08T05:33:08;18.03;80.93
76040;SHT30;64736;50.462;4.850;2023-07-08T05:35:34;18.33;80.30
76040;SHT30;64736;50.462;4.850;2023-07-08T05:38:01;18.37;80.30
76040;SHT30;64736;50.462;4.850;2023-07-08T05:40:27;18.44;80.04
76040;SHT30;64736;50.462;4.850;2023-07-08T05:42:52;18.47;80.26
76040;SHT30;64736;50.462;4.850;2023-07-08T05:45:18;18.45;80.32
76040;SHT30;64736;50.462;4.850;2023-07-08T05:47:43;18.52;80.40
76040;SHT30;64736;50.462;4.850;2023-07-08T05:50:13;18.61;80.36
76040;SHT30;64736;50.462;4.850;2023-07-08T05:52:38;18.62;80.46
76040;SHT30;64736;50.462;4.850;2023-07-08T05:55:04;18.65;80.52
76040;SHT30;64736;50.462;4.850;2023-07-08T05:57:30;18.66;80.56
76040;SHT30;64736;50.462;4.850;2023-07-08T05:59:56;18.65;80.69
76040;SHT30;64736;50.462;4.850;2023-07-08T06:02:21;18.62;80.70
76040;SHT30;64736;50.462;4.850;2023-07-08T06:04:50;18.64;80.89
76040;SHT30;64736;50.462;4.850;2023-07-08T06:07:16;18.86;80.57
76040;SHT30;64736;50.462;4.850;2023-07-08T06:09:42;18.85;80.78
76040;SHT30;64736;50.462;4.850;2023-07-08T06:12:08;18.79;81.13
76040;SHT30;64736;50.462;4.850;2023-07-08T06:14:33;18.88;80.83
76040;SHT30;64736;50.462;4.850;2023-07-08T06:16:59;18.88;80.87
76040;SHT30;64736;50.462;4.850;2023-07-08T06:19:24;19.00;80.74
76040;SHT30;64736;50.462;4.850;2023-07-08T06:21:50;19.06;80.47
76040;SHT30;64736;50.462;4.850;2023-07-08T06:24:16;19.16;80.38
76040;SHT30;64736;50.462;4.850;2023-07-08T06:26:42;19.23;80.33
76040;SHT30;64736;50.462;4.850;2023-07-08T06:29:07;19.41;79.94
76040;SHT30;64736;50.462;4.850;2023-07-08T06:31:33;19.35;80.24
76040;SHT30;64736;50.462;4.850;2023-07-08T06:34:00;19.51;79.15
76040;SHT30;64736;50.462;4.850;2023-07-08T06:36:27;19.53;79.34
76040;SHT30;64736;50.462;4.850;2023-07-08T06:38:52;19.50;78.35
76040;SHT30;64736;50.462;4.850;2023-07-08T06:41:18;19.62;76.97
76040;SHT30;64736;50.462;4.850;2023-07-08T06:43:44;19.93;73.39
76040;SHT30;64736;50.462;4.850;2023-07-08T06:46:09;20.43;69.40
76040;SHT30;64736;50.462;4.850;2023-07-08T06:48:35;20.46;68.40
76040;SHT30;64736;50.462;4.850;2023-07-08T06:51:01;20.37;69.64
76040;SHT30;64736;50.462;4.850;2023-07-08T06:53:27;20.56;72.96
76040;SHT30;64736;50.462;4.850;2023-07-08T06:55:53;20.40;72.23
76040;SHT30;64736;50.462;4.850;2023-07-08T06:58:19;20.41;74.07
76040;SHT30;64736;50.462;4.850;2023-07-08T07:00:45;20.50;74.58
76040;SHT30;64736;50.462;4.850;2023-07-08T07:03:11;20.30;75.16
76040;SHT30;64736;50.462;4.850;2023-07-08T07:05:38;20.41;75.18
76040;SHT30;64736;50.462;4.850;2023-07-08T07:08:04;20.53;75.45
76040;SHT30;64736;50.462;4.850;2023-07-08T07:10:30;20.47;74.86
76040;SHT30;64736;50.462;4.850;2023-07-08T07:12:55;20.54;75.10
76040;SHT30;64736;50.462;4.850;2023-07-08T07:15:21;20.80;75.24
76040;SHT30;64736;50.462;4.850;2023-07-08T07:17:47;20.74;73.82
76040;SHT30;64736;50.462;4.850;2023-07-08T07:20:12;20.87;73.75
76040;SHT30;64736;50.462;4.850;2023-07-08T07:22:38;20.84;72.94
76040;SHT30;64736;50.462;4.850;2023-07-08T07:25:05;21.28;68.64
76040;SHT30;64736;50.462;4.850;2023-07-08T07:27:30;21.60;70.84
76040;SHT30;64736;50.462;4.850;2023-07-08T07:29:56;21.52;68.71
76040;SHT30;64736;50.462;4.850;2023-07-08T07:32:25;21.84;66.67
76040;SHT30;64736;50.462;4.850;2023-07-08T07:34:52;21.84;67.37
76040;SHT30;64736;50.462;4.850;2023-07-08T07:37:20;21.98;64.61
76040;SHT30;64736;50.462;4.850;2023-07-08T07:39:47;22.12;61.56
76040;SHT30;64736;50.462;4.850;2023-07-08T07:42:14;22.29;63.59
76040;SHT30;64736;50.462;4.850;2023-07-08T07:44:40;22.53;60.03
76040;SHT30;64736;50.462;4.850;2023-07-08T07:47:07;22.59;65.64
76040;SHT30;64736;50.462;4.850;2023-07-08T07:49:33;22.69;62.74
76040;SHT30;64736;50.462;4.850;2023-07-08T07:51:59;23.47;56.76
76040;SHT30;64736;50.462;4.850;2023-07-08T07:54:25;23.13;60.08
76040;SHT30;64736;50.462;4.850;2023-07-08T07:56:51;23.48;55.25
76040;SHT30;64736;50.462;4.850;2023-07-08T07:59:17;23.38;56.70
76040;SHT30;64736;50.462;4.850;2023-07-08T08:01:42;23.50;56.74
76040;SHT30;64736;50.462;4.850;2023-07-08T08:04:09;23.75;54.56
76040;SHT30;64736;50.462;4.850;2023-07-08T08:06:35;23.86;54.47
76040;SHT30;64736;50.462;4.850;2023-07-08T08:09:02;23.95;53.82
76040;SHT30;64736;50.462;4.850;2023-07-08T08:11:29;24.16;53.30
76040;SHT30;64736;50.462;4.850;2023-07-08T08:13:55;24.12;55.56
76040;SHT30;64736;50.462;4.850;2023-07-08T08:16:21;24.24;54.94
76040;SHT30;64736;50.462;4.850;2023-07-08T08:18:47;24.31;54.10
76040;SHT30;64736;50.462;4.850;2023-07-08T08:21:12;24.48;54.19
76040;SHT30;64736;50.462;4.850;2023-07-08T08:23:39;24.57;52.83
76040;SHT30;64736;50.462;4.850;2023-07-08T08:26:04;24.71;52.20
76040;SHT30;64736;50.462;4.850;2023-07-08T08:28:30;24.88;52.43
76040;SHT30;64736;50.462;4.850;2023-07-08T08:30:58;24.99;53.19
76040;SHT30;64736;50.462;4.850;2023-07-08T08:33:23;25.18;51.25
76040;SHT30;64736;50.462;4.850;2023-07-08T08:35:49;25.29;51.60
76040;SHT30;64736;50.462;4.850;2023-07-08T08:38:14;25.35;51.39
76040;SHT30;64736;50.462;4.850;2023-07-08T08:40:41;25.43;51.59
76040;SHT30;64736;50.462;4.850;2023-07-08T08:43:14;25.46;52.21
76040;SHT30;64736;50.462;4.850;2023-07-08T08:49:21;25.54;51.11
76040;SHT30;64736;50.462;4.850;2023-07-08T08:51:49;25.62;51.88
76040;SHT30;64736;50.462;4.850;2023-07-08T08:54:16;25.66;51.14
76040;SHT30;64736;50.462;4.850;2023-07-08T08:57:00;25.97;50.20
76040;SHT30;64736;50.462;4.850;2023-07-08T08:59:57;25.90;50.88
76040;SHT30;64736;50.462;4.850;2023-07-08T09:05:11;26.70;49.64
76040;SHT30;64736;50.462;4.850;2023-07-08T09:10:19;26.28;52.43
76040;SHT30;64736;50.462;4.850;2023-07-08T09:12:50;26.33;50.46
76040;SHT30;64736;50.462;4.850;2023-07-08T09:15:17;26.57;50.49
76040;SHT30;64736;50.462;4.850;2023-07-08T09:17:42;26.86;49.77
76040;SHT30;64736;50.462;4.850;2023-07-08T09:23:00;26.93;50.20
76040;SHT30;64736;50.462;4.850;2023-07-08T09:25:42;26.94;49.15
76040;SHT30;64736;50.462;4.850;2023-07-08T09:28:12;27.25;48.58
76040;SHT30;64736;50.462;4.850;2023-07-08T09:30:38;27.25;49.75
76040;SHT30;64736;50.462;4.850;2023-07-08T09:33:04;27.41;49.70
76040;SHT30;64736;50.462;4.850;2023-07-08T09:35:47;27.56;48.78
76040;SHT30;64736;50.462;4.850;2023-07-08T09:38:18;27.56;48.76
76040;SHT30;64736;50.462;4.850;2023-07-08T09:40:49;27.66;48.46
76040;SHT30;64736;50.462;4.850;2023-07-08T09:43:33;27.93;48.49
76040;SHT30;64736;50.462;4.850;2023-07-08T09:46:01;28.10;48.41
76040;SHT30;64736;50.462;4.850;2023-07-08T09:48:33;28.30;47.96
76040;SHT30;64736;50.462;4.850;2023-07-08T09:50:59;28.40;48.48
76040;SHT30;64736;50.462;4.850;2023-07-08T09:53:26;28.61;48.11
76040;SHT30;64736;50.462;4.850;2023-07-08T09:55:58;28.65;46.75
76040;SHT30;64736;50.462;4.850;2023-07-08T09:58:36;28.95;47.23
76040;SHT30;64736;50.462;4.850;2023-07-08T10:01:31;29.17;46.85
76040;SHT30;64736;50.462;4.850;2023-07-08T10:04:00;29.91;45.17
76040;SHT30;64736;50.462;4.850;2023-07-08T10:06:28;30.47;43.99
76040;SHT30;64736;50.462;4.850;2023-07-08T10:08:55;30.80;42.81
76040;SHT30;64736;50.462;4.850;2023-07-08T10:11:28;31.32;43.05
76040;SHT30;64736;50.462;4.850;2023-07-08T10:14:02;32.07;41.21
76040;SHT30;64736;50.462;4.850;2023-07-08T10:16:31;32.80;40.79
76040;SHT30;64736;50.462;4.850;2023-07-08T10:18:58;33.09;39.43
76040;SHT30;64736;50.462;4.850;2023-07-08T10:21:46;32.37;40.59
76040;SHT30;64736;50.462;4.850;2023-07-08T10:27:27;34.56;37.73
76040;SHT30;64736;50.462;4.850;2023-07-08T10:30:11;34.42;38.37
76040;SHT30;64736;50.462;4.850;2023-07-08T10:38:05;36.61;33.96
76040;SHT30;64736;50.462;4.850;2023-07-08T10:40:49;36.67;34.41
76040;SHT30;64736;50.462;4.850;2023-07-08T11:02:25;33.87;37.52
76040;SHT30;64736;50.462;4.850;2023-07-08T11:14:15;40.51;28.82
76040;SHT30;64736;50.462;4.850;2023-07-08T11:16:47;38.67;31.15
76040;SHT30;64736;50.462;4.850;2023-07-08T11:19:20;41.22;28.35
76040;SHT30;64736;50.462;4.850;2023-07-08T11:21:51;39.88;29.92
76040;SHT30;64736;50.462;4.850;2023-07-08T11:24:51;41.39;28.61
76040;SHT30;64736;50.462;4.850;2023-07-08T11:27:20;40.80;28.45
76040;SHT30;64736;50.462;4.850;2023-07-08T11:30:16;38.62;31.53
76040;SHT30;64736;50.462;4.850;2023-07-08T11:32:44;39.49;30.86
76040;SHT30;64736;50.462;4.850;2023-07-08T11:35:33;42.55;27.43
76040;SHT30;64736;50.462;4.850;2023-07-08T11:38:01;42.13;27.36
76040;SHT30;64736;50.462;4.850;2023-07-08T11:40:28;41.39;28.41
76040;SHT30;64736;50.462;4.850;2023-07-08T11:43:05;41.19;28.64
76040;SHT30;64736;50.462;4.850;2023-07-08T11:45:34;35.89;35.28
76040;SHT30;64736;50.462;4.850;2023-07-08T11:48:16;39.84;28.86
76040;SHT30;64736;50.462;4.850;2023-07-08T11:50:44;39.93;29.03
76040;SHT30;64736;50.462;4.850;2023-07-08T11:56:20;36.13;34.00
76040;SHT30;64736;50.462;4.850;2023-07-08T11:58:50;36.04;35.02
76040;SHT30;64736;50.462;4.850;2023-07-08T12:01:23;37.67;32.83
76040;SHT30;64736;50.462;4.850;2023-07-08T12:09:23;40.80;29.40
76040;SHT30;64736;50.462;4.850;2023-07-08T12:11:55;41.09;29.23
76040;SHT30;64736;50.462;4.850;2023-07-08T12:14:22;40.78;30.06
76040;SHT30;64736;50.462;4.850;2023-07-08T12:16:48;40.88;29.98
76040;SHT30;64736;50.462;4.850;2023-07-08T12:19:17;41.08;29.92
76040;SHT30;64736;50.462;4.850;2023-07-08T12:21:44;41.18;30.17
76040;SHT30;64736;50.462;4.850;2023-07-08T12:24:13;40.61;30.48
76040;SHT30;64736;50.462;4.850;2023-07-08T12:26:40;40.55;30.17
76040;SHT30;64736;50.462;4.850;2023-07-08T12:29:06;39.92;31.38
76040;SHT30;64736;50.462;4.850;2023-07-08T12:31:32;39.61;31.68
76040;SHT30;64736;50.462;4.850;2023-07-08T12:33:58;39.11;32.06
76040;SHT30;64736;50.462;4.850;2023-07-08T12:36:26;40.17;30.86
76040;SHT30;64736;50.462;4.850;2023-07-08T12:38:54;40.54;30.29
76040;SHT30;64736;50.462;4.850;2023-07-08T12:41:25;39.86;30.25
76040;SHT30;64736;50.462;4.850;2023-07-08T12:43:53;39.69;30.65
76040;SHT30;64736;50.462;4.850;2023-07-08T12:46:20;40.43;30.54
76040;SHT30;64736;50.462;4.850;2023-07-08T12:48:46;40.74;30.27
76040;SHT30;64736;50.462;4.850;2023-07-08T12:51:18;40.15;31.34
76040;SHT30;64736;50.462;4.850;2023-07-08T12:53:46;40.09;30.38
76040;SHT30;64736;50.462;4.850;2023-07-08T12:56:13;40.47;30.22
76040;SHT30;64736;50.462;4.850;2023-07-08T12:58:44;38.66;32.59
76040;SHT30;64736;50.462;4.850;2023-07-08T13:01:17;39.93;30.34
76040;SHT30;64736;50.462;4.850;2023-07-08T13:03:45;40.78;30.43
76040;SHT30;64736;50.462;4.850;2023-07-08T13:06:18;40.58;30.13
76040;SHT30;64736;50.462;4.850;2023-07-08T13:08:46;39.15;31.90
76040;SHT30;64736;50.462;4.850;2023-07-08T13:11:16;39.28;32.21
76040;SHT30;64736;50.462;4.850;2023-07-08T13:14:00;38.59;33.21
76040;SHT30;64736;50.462;4.850;2023-07-08T13:16:32;38.90;32.71
76040;SHT30;64736;50.462;4.850;2023-07-08T13:18:59;39.03;32.56
76040;SHT30;64736;50.462;4.850;2023-07-08T13:21:26;38.60;33.24
76040;SHT30;64736;50.462;4.850;2023-07-08T13:23:56;38.40;34.14
76040;SHT30;64736;50.462;4.850;2023-07-08T13:26:27;37.39;35.45
76040;SHT30;64736;50.462;4.850;2023-07-08T13:29:09;36.92;35.71
76040;SHT30;64736;50.462;4.850;2023-07-08T13:31:38;37.02;36.50
76040;SHT30;64736;50.462;4.850;2023-07-08T13:34:13;37.21;35.90
76040;SHT30;64736;50.462;4.850;2023-07-08T13:36:43;37.30;35.62
76040;SHT30;64736;50.462;4.850;2023-07-08T13:39:25;37.51;34.79
76040;SHT30;64736;50.462;4.850;2023-07-08T13:41:52;37.22;35.75
76040;SHT30;64736;50.462;4.850;2023-07-08T13:44:18;36.81;36.74
76040;SHT30;64736;50.462;4.850;2023-07-08T13:46:53;36.17;36.63
76040;SHT30;64736;50.462;4.850;2023-07-08T13:49:22;35.82;37.62
76040;SHT30;64736;50.462;4.850;2023-07-08T13:51:50;35.80;38.53
76040;SHT30;64736;50.462;4.850;2023-07-08T13:54:33;35.78;38.40
76040;SHT30;64736;50.462;4.850;2023-07-08T13:57:01;35.78;38.63
76040;SHT30;64736;50.462;4.850;2023-07-08T13:59:27;36.63;37.72
76040;SHT30;64736;50.462;4.850;2023-07-08T14:01:55;38.87;35.00
76040;SHT30;64736;50.462;4.850;2023-07-08T14:04:29;39.06;33.18
76040;SHT30;64736;50.462;4.850;2023-07-08T14:06:55;39.38;33.80
76040;SHT30;64736;50.462;4.850;2023-07-08T14:09:22;39.41;33.68
76040;SHT30;64736;50.462;4.850;2023-07-08T14:11:49;39.22;33.70
76040;SHT30;64736;50.462;4.850;2023-07-08T14:14:15;39.89;33.66
76040;SHT30;64736;50.462;4.850;2023-07-08T14:16:46;39.81;33.36
76040;SHT30;64736;50.462;4.850;2023-07-08T14:19:22;40.06;32.97
76040;SHT30;64736;50.462;4.850;2023-07-08T14:21:51;39.65;34.02
76040;SHT30;64736;50.462;4.850;2023-07-08T14:24:18;39.68;33.76
76040;SHT30;64736;50.462;4.850;2023-07-08T14:26:44;39.44;33.08
76040;SHT30;64736;50.462;4.850;2023-07-08T14:29:11;39.73;32.49
76040;SHT30;64736;50.462;4.850;2023-07-08T14:31:39;39.70;33.43
76040;SHT30;64736;50.462;4.850;2023-07-08T14:34:15;39.45;32.81
76040;SHT30;64736;50.462;4.850;2023-07-08T14:36:42;39.84;32.48
76040;SHT30;64736;50.462;4.850;2023-07-08T14:39:14;41.18;30.02
76040;SHT30;64736;50.462;4.850;2023-07-08T14:41:41;40.61;29.92
76040;SHT30;64736;50.462;4.850;2023-07-08T14:44:22;40.58;30.21
76040;SHT30;64736;50.462;4.850;2023-07-08T14:46:49;40.07;30.77
76040;SHT30;64736;50.462;4.850;2023-07-08T14:49:21;41.09;29.82
76040;SHT30;64736;50.462;4.850;2023-07-08T14:51:48;40.96;29.07
76040;SHT30;64736;50.462;4.850;2023-07-08T14:54:14;40.70;29.26
76040;SHT30;64736;50.462;4.850;2023-07-08T14:56:41;39.64;29.67
76040;SHT30;64736;50.462;4.850;2023-07-08T14:59:17;39.18;29.97
76040;SHT30;64736;50.462;4.850;2023-07-08T15:01:44;40.47;29.24
76040;SHT30;64736;50.462;4.850;2023-07-08T15:04:11;40.84;28.26
76040;SHT30;64736;50.462;4.850;2023-07-08T15:06:37;41.22;28.32
76040;SHT30;64736;50.462;4.850;2023-07-08T15:09:03;40.64;29.58
76040;SHT30;64736;50.462;4.850;2023-07-08T15:11:31;41.45;28.64
76040;SHT30;64736;50.462;4.850;2023-07-08T15:13:57;41.83;27.95
76040;SHT30;64736;50.462;4.850;2023-07-08T15:16:23;39.92;30.33
76040;SHT30;64736;50.462;4.850;2023-07-08T15:18:49;41.61;28.47
76040;SHT30;64736;50.462;4.850;2023-07-08T15:21:15;41.03;28.98
76040;SHT30;64736;50.462;4.850;2023-07-08T15:23:41;41.03;28.81
76040;SHT30;64736;50.462;4.850;2023-07-08T15:26:12;41.66;27.79
76040;SHT30;64736;50.462;4.850;2023-07-08T15:28:49;40.77;28.76
76040;SHT30;64736;50.462;4.850;2023-07-08T15:31:21;41.19;28.41
76040;SHT30;64736;50.462;4.850;2023-07-08T15:33:51;40.67;29.53
76040;SHT30;64736;50.462;4.850;2023-07-08T15:36:16;39.55;30.21
76040;SHT30;64736;50.462;4.850;2023-07-08T15:38:43;39.21;30.41
76040;SHT30;64736;50.462;4.850;2023-07-08T15:41:22;39.95;30.35
76040;SHT30;64736;50.462;4.850;2023-07-08T15:43:49;39.44;30.72
76040;SHT30;64736;50.462;4.850;2023-07-08T15:46:18;39.07;31.79
76040;SHT30;64736;50.462;4.850;2023-07-08T15:48:43;36.88;35.44
76040;SHT30;64736;50.462;4.850;2023-07-08T15:51:14;38.07;33.56
76040;SHT30;64736;50.462;4.850;2023-07-08T15:53:40;38.46;32.84
76040;SHT30;64736;50.462;4.850;2023-07-08T15:56:11;37.91;33.87
76040;SHT30;64736;50.462;4.850;2023-07-08T15:58:38;37.46;34.74
76040;SHT30;64736;50.462;4.850;2023-07-08T16:01:05;37.11;34.74
76040;SHT30;64736;50.462;4.850;2023-07-08T16:03:33;36.96;34.90
76040;SHT30;64736;50.462;4.850;2023-07-08T16:06:00;36.34;35.67
76040;SHT30;64736;50.462;4.850;2023-07-08T16:08:26;36.06;36.06
76040;SHT30;64736;50.462;4.850;2023-07-08T16:10:55;36.28;35.90
76040;SHT30;64736;50.462;4.850;2023-07-08T16:13:32;36.63;35.78
76040;SHT30;64736;50.462;4.850;2023-07-08T16:15:58;35.80;36.62
76040;SHT30;64736;50.462;4.850;2023-07-08T16:18:24;35.08;38.29
76040;SHT30;64736;50.462;4.850;2023-07-08T16:20:50;36.00;37.13
76040;SHT30;64736;50.462;4.850;2023-07-08T16:23:16;35.76;36.71
76040;SHT30;64736;50.462;4.850;2023-07-08T16:25:47;35.97;37.31
76040;SHT30;64736;50.462;4.850;2023-07-08T16:30:54;35.72;36.99
76040;SHT30;64736;50.462;4.850;2023-07-08T16:33:21;35.11;38.48
76040;SHT30;64736;50.462;4.850;2023-07-08T16:35:46;34.31;40.21
76040;SHT30;64736;50.462;4.850;2023-07-08T16:38:12;35.44;40.74
76040;SHT30;64736;50.462;4.850;2023-07-08T16:40:40;35.99;37.11
76040;SHT30;64736;50.462;4.850;2023-07-08T16:43:16;37.33;36.20